createdAt,value
2018-07-19T00:00:38.760Z,90.7
2018-07-19T00:01:38.748Z,90.7
2018-07-19T00:02:38.910Z,90.12
2018-07-19T00:03:38.747Z,90.99
2018-07-19T00:04:38.743Z,91.08
2018-07-19T00:05:38.753Z,90.89
2018-07-19T00:06:39.040Z,90.89
2018-07-19T00:07:38.732Z,90.89
2018-07-19T00:08:38.730Z,90.89
2018-07-19T00:09:39.103Z,91.47
2018-07-19T00:10:38.718Z,91.37
2018-07-19T00:11:38.720Z,91.37
2018-07-19T00:12:39.293Z,91.47
2018-07-19T00:13:38.714Z,91.08
2018-07-19T00:14:38.710Z,91.66
2018-07-19T00:15:38.714Z,91.28
2018-07-19T00:16:39.185Z,91.66
2018-07-19T00:17:38.700Z,91.47
2018-07-19T00:18:38.696Z,91.66
2018-07-19T00:19:39.296Z,91.61
2018-07-19T00:20:38.936Z,92.24
2018-07-19T00:21:38.690Z,92.24
2018-07-19T00:22:38.678Z,91.95
2018-07-19T00:23:39.066Z,92.19
2018-07-19T00:24:38.696Z,92.38
2018-07-19T00:25:38.668Z,92.67
2018-07-19T00:26:38.676Z,92.29
2018-07-19T00:27:39.049Z,92.19
2018-07-19T00:28:38.664Z,92.19
2018-07-19T00:29:38.662Z,92.29
2018-07-19T00:30:38.661Z,92.67
2018-07-19T00:31:39.161Z,92.29
2018-07-19T00:32:38.647Z,92.29
2018-07-19T00:33:38.639Z,92.48
2018-07-19T00:34:38.384Z,91.71
2018-07-19T00:35:38.374Z,91.81
2018-07-19T00:36:38.635Z,92.1
2018-07-19T00:37:38.368Z,91.9
2018-07-19T00:38:39.131Z,92.19
2018-07-19T00:39:38.623Z,92
2018-07-19T00:40:38.624Z,92.19
2018-07-19T00:41:38.624Z,92.1
2018-07-19T00:42:38.621Z,92.86
2018-07-19T00:43:38.604Z,92.38
2018-07-19T00:44:38.601Z,93.05
2018-07-19T00:45:39.156Z,93.05
2018-07-19T00:46:38.600Z,93.05
2018-07-19T00:47:38.591Z,92.86
2018-07-19T00:48:38.590Z,92.67
2018-07-19T00:49:38.327Z,92.48
2018-07-19T00:50:38.583Z,93.05
2018-07-19T00:51:38.571Z,93.25
2018-07-19T00:52:38.581Z,93.34
2018-07-19T00:53:39.018Z,93.54
2018-07-19T00:54:38.566Z,93.82
2018-07-19T00:55:38.567Z,93.15
2018-07-19T00:56:38.560Z,93.25
2018-07-19T00:57:39.128Z,93.05
2018-07-19T00:58:38.554Z,92.91
2018-07-19T00:59:38.555Z,93.15
2018-07-19T01:00:39.060Z,93.3
2018-07-19T01:01:38.545Z,93.05
2018-07-19T01:02:38.539Z,93.63
2018-07-19T01:03:38.275Z,93.15
2018-07-19T01:04:39.012Z,93.1
2018-07-19T01:05:38.531Z,93.01
2018-07-19T01:06:38.533Z,93.39
2018-07-19T01:07:38.524Z,93.39
2018-07-19T01:08:38.258Z,93.59
2018-07-19T01:09:38.513Z,93.49
2018-07-19T01:10:38.514Z,94.26
2018-07-19T01:11:38.747Z,93.77
2018-07-19T01:12:38.243Z,93.77
2018-07-19T01:13:38.240Z,93.77
2018-07-19T01:14:38.502Z,93.97
2018-07-19T01:15:39.123Z,93.97
2018-07-19T01:16:38.496Z,93.68
2018-07-19T01:17:38.224Z,93.68
2018-07-19T01:18:38.961Z,93.59
2018-07-19T01:19:38.476Z,94.26
2018-07-19T01:20:38.516Z,94.26
2018-07-19T01:21:39.065Z,94.26
2018-07-19T01:22:38.205Z,94.35
2018-07-19T01:23:38.461Z,94.26
2018-07-19T01:24:38.723Z,94.26
2018-07-19T01:25:38.453Z,94.26
2018-07-19T01:26:38.453Z,94.54
2018-07-19T01:27:38.966Z,93.97
2018-07-19T01:28:38.459Z,94.26
2018-07-19T01:29:38.179Z,94.26
2018-07-19T01:30:38.438Z,94.54
2018-07-19T01:31:38.172Z,94.26
2018-07-19T01:32:38.435Z,93.77
2018-07-19T01:33:38.163Z,93.87
2018-07-19T01:34:38.428Z,94.07
2018-07-19T01:35:38.425Z,94.54
2018-07-19T01:36:38.803Z,94.35
2018-07-19T01:37:38.419Z,94.35
2018-07-19T01:38:38.408Z,94.35
2018-07-19T01:39:38.402Z,94.35
2018-07-19T01:40:38.137Z,93.77
2018-07-19T01:41:38.391Z,94.26
2018-07-19T01:42:38.395Z,94.26
2018-07-19T01:43:38.890Z,94.35
2018-07-19T01:44:38.386Z,94.35
2018-07-19T01:45:38.374Z,94.35
2018-07-19T01:46:38.808Z,94.54
2018-07-19T01:47:38.373Z,94.26
2018-07-19T01:48:38.362Z,94.54
2018-07-19T01:49:38.607Z,94.35
2018-07-19T01:50:38.362Z,94.07
2018-07-19T01:51:38.351Z,94.54
2018-07-19T01:52:38.936Z,94.16
2018-07-19T01:53:38.345Z,94.45
2018-07-19T01:54:38.350Z,94.26
2018-07-19T01:55:38.875Z,94.35
2018-07-19T01:56:38.074Z,94.26
2018-07-19T01:57:38.341Z,94.16
2018-07-19T01:58:38.734Z,94.16
2018-07-19T01:59:38.327Z,93.77
2018-07-19T02:00:38.356Z,94.35
2018-07-19T02:01:38.331Z,94.07
2018-07-19T02:02:38.307Z,93.82
2018-07-19T02:03:38.308Z,94.59
2018-07-19T02:04:38.307Z,94.64
2018-07-19T02:05:38.743Z,94.49
2018-07-19T02:06:38.313Z,93.97
2018-07-19T02:07:38.290Z,94.16
2018-07-19T02:08:38.027Z,94.07
2018-07-19T02:09:38.284Z,94.21
2018-07-19T02:10:38.278Z,94.69
2018-07-19T02:11:38.762Z,94.21
2018-07-19T02:12:38.283Z,94.4
2018-07-19T02:13:38.272Z,94.02
2018-07-19T02:14:38.261Z,94.21
2018-07-19T02:15:38.000Z,94.4
2018-07-19T02:16:37.996Z,94.4
2018-07-19T02:17:38.262Z,94.49
2018-07-19T02:18:38.522Z,94.49
2018-07-19T02:19:38.246Z,94.49
2018-07-19T02:20:38.238Z,94.69
2018-07-19T02:21:38.493Z,95.07
2018-07-19T02:22:37.972Z,95.07
2018-07-19T02:23:38.237Z,94.98
2018-07-19T02:24:38.888Z,95.07
2018-07-19T02:25:38.224Z,94.88
2018-07-19T02:26:38.215Z,95.07
2018-07-19T02:27:38.810Z,95.07
2018-07-19T02:28:38.211Z,95.36
2018-07-19T02:29:38.207Z,94.88
2018-07-19T02:30:38.590Z,94.88
2018-07-19T02:31:38.212Z,95.07
2018-07-19T02:32:38.200Z,95.46
2018-07-19T02:33:37.929Z,95.07
2018-07-19T02:34:38.197Z,94.69
2018-07-19T02:35:38.185Z,95.07
2018-07-19T02:36:38.171Z,94.88
2018-07-19T02:37:38.174Z,95.36
2018-07-19T02:38:38.166Z,95.36
2018-07-19T02:39:37.903Z,94.79
2018-07-19T02:40:38.849Z,95.17
2018-07-19T02:41:38.173Z,95.17
2018-07-19T02:42:38.173Z,94.98
2018-07-19T02:43:38.535Z,95.26
2018-07-19T02:44:37.884Z,95.84
2018-07-19T02:45:38.158Z,95.75
2018-07-19T02:46:38.593Z,95.26
2018-07-19T02:47:38.134Z,95.46
2018-07-19T02:48:38.133Z,95.46
2018-07-19T02:49:38.139Z,95.55
2018-07-19T02:50:38.117Z,95.55
2018-07-19T02:51:38.125Z,95.17
2018-07-19T02:52:38.110Z,95.46
2018-07-19T02:53:38.597Z,95.75
2018-07-19T02:54:37.855Z,95.36
2018-07-19T02:55:38.096Z,95.55
2018-07-19T02:56:37.834Z,95.65
2018-07-19T02:57:38.087Z,95.75
2018-07-19T02:58:38.088Z,95.65
2018-07-19T02:59:38.613Z,95.94
2018-07-19T03:00:37.823Z,95.84
2018-07-19T03:01:38.076Z,95.46
2018-07-19T03:02:38.085Z,95.36
2018-07-19T03:03:38.460Z,95.36
2018-07-19T03:04:38.073Z,95.6
2018-07-19T03:05:38.057Z,95.65
2018-07-19T03:06:38.754Z,95.94
2018-07-19T03:07:38.134Z,95.46
2018-07-19T03:08:38.053Z,95.46
2018-07-19T03:09:38.600Z,95.51
2018-07-19T03:10:37.776Z,95.36
2018-07-19T03:11:38.030Z,95.75
2018-07-19T03:12:37.767Z,95.46
2018-07-19T03:13:37.763Z,95.75
2018-07-19T03:14:38.026Z,95.7
2018-07-19T03:15:38.016Z,95.46
2018-07-19T03:16:38.546Z,95.55
2018-07-19T03:17:39.224Z,95.79
2018-07-19T03:18:37.743Z,95.75
2018-07-19T03:19:37.738Z,95.55
2018-07-19T03:20:37.997Z,95.36
2018-07-19T03:21:37.995Z,95.17
2018-07-19T03:22:38.520Z,95.17
2018-07-19T03:23:37.978Z,95.17
2018-07-19T03:24:37.975Z,95.07
2018-07-19T03:25:37.983Z,95.36
2018-07-19T03:26:37.968Z,95.26
2018-07-19T03:27:37.969Z,94.98
2018-07-19T03:28:37.963Z,95.17
2018-07-19T03:29:38.530Z,95.17
2018-07-19T03:30:37.959Z,95.26
2018-07-19T03:31:37.954Z,94.88
2018-07-19T03:32:38.457Z,94.79
2018-07-19T03:33:37.944Z,94.98
2018-07-19T03:34:37.675Z,95.07
2018-07-19T03:35:37.672Z,94.98
2018-07-19T03:36:37.931Z,95.07
2018-07-19T03:37:37.928Z,95.26
2018-07-19T03:38:38.393Z,94.79
2018-07-19T03:39:37.936Z,94.21
2018-07-19T03:40:37.908Z,94.31
2018-07-19T03:41:37.654Z,94.4
2018-07-19T03:42:37.899Z,94.69
2018-07-19T03:43:37.903Z,94.79
2018-07-19T03:44:37.902Z,94.69
2018-07-19T03:45:37.887Z,94.31
2018-07-19T03:46:37.894Z,94.12
2018-07-19T03:47:37.929Z,94.12
2018-07-19T03:48:38.422Z,94.21
2018-07-19T03:49:37.877Z,94.21
2018-07-19T03:50:37.974Z,94.49
2018-07-19T03:51:38.421Z,94.49
2018-07-19T03:52:37.877Z,94.4
2018-07-19T03:53:37.870Z,94.31
2018-07-19T03:54:38.493Z,94.21
2018-07-19T03:55:37.850Z,93.73
2018-07-19T03:56:37.847Z,94.21
2018-07-19T03:57:37.583Z,93.54
2018-07-19T03:58:37.838Z,93.77
2018-07-19T03:59:37.838Z,93.1
2018-07-19T04:00:37.571Z,92.91
2018-07-19T04:01:37.827Z,93.2
2018-07-19T04:02:37.823Z,92.63
2018-07-19T04:03:38.467Z,92.82
2018-07-19T04:04:37.819Z,92.1
2018-07-19T04:05:37.814Z,92.19
2018-07-19T04:06:37.810Z,91.81
2018-07-19T04:07:38.221Z,91.61
2018-07-19T04:08:37.801Z,90.7
2018-07-19T04:09:37.800Z,90.6
2018-07-19T04:10:38.281Z,90.45
2018-07-19T04:11:37.796Z,89.78
2018-07-19T04:12:37.798Z,89.25
2018-07-19T04:13:37.801Z,88.39
2018-07-19T04:14:37.522Z,87.27
2018-07-19T04:15:37.781Z,86.6
2018-07-19T04:16:37.781Z,86.22
2018-07-19T04:17:38.295Z,85.39
2018-07-19T04:18:37.773Z,84.76
2018-07-19T04:19:37.774Z,83.7
2018-07-19T04:20:37.513Z,83.22
2018-07-19T04:21:37.771Z,82.87
2018-07-19T04:22:37.776Z,82.87
2018-07-19T04:23:37.765Z,82.34
2018-07-19T04:24:37.989Z,81.85
2018-07-19T04:25:37.769Z,81.6
2018-07-19T04:26:37.776Z,80.83
2018-07-19T04:27:38.216Z,79.43
2018-07-19T04:28:37.780Z,78.94
2018-07-19T04:29:37.761Z,78.41
2018-07-19T04:30:37.764Z,78.02
2018-07-19T04:31:38.190Z,76.8
2018-07-19T04:32:37.498Z,76.74
2018-07-19T04:33:37.768Z,75.29
2018-07-19T04:34:37.755Z,74.17
2018-07-19T04:35:37.758Z,73.78
2018-07-19T04:36:37.769Z,73.63
2018-07-19T04:37:37.761Z,72.4
2018-07-19T04:38:37.502Z,71.72
2018-07-19T04:39:37.503Z,70.4
2018-07-19T04:40:37.768Z,69.73
2018-07-19T04:41:38.271Z,68.89
2018-07-19T04:42:37.774Z,68.6
2018-07-19T04:43:37.782Z,67.53
2018-07-19T04:44:37.779Z,67.37
2018-07-19T04:45:38.282Z,66.79
2018-07-19T04:46:37.778Z,66.14
2018-07-19T04:47:37.787Z,64.78
2018-07-19T04:48:38.178Z,64.88
2018-07-19T04:49:37.788Z,64.82
2018-07-19T04:50:37.789Z,64.23
2018-07-19T04:51:38.441Z,63.65
2018-07-19T04:52:37.804Z,62.62
2018-07-19T04:53:37.542Z,62.04
2018-07-19T04:54:37.915Z,61.74
2018-07-19T04:55:37.553Z,61.38
2018-07-19T04:56:37.819Z,60.71
2018-07-19T04:57:37.825Z,60.05
2018-07-19T04:58:38.392Z,60.25
2018-07-19T04:59:37.830Z,58.72
2018-07-19T05:00:37.837Z,58.72
2018-07-19T05:01:37.590Z,57.59
2018-07-19T05:02:37.845Z,56.84
2018-07-19T05:03:37.856Z,56.76
2018-07-19T05:04:37.601Z,55.11
2018-07-19T05:05:38.219Z,55.21
2018-07-19T05:06:37.861Z,53.97
2018-07-19T05:07:37.611Z,53.31
2018-07-19T05:08:37.891Z,53.21
2018-07-19T05:09:37.880Z,52.75
2018-07-19T05:10:37.898Z,52.29
2018-07-19T05:11:37.899Z,51.31
2018-07-19T05:12:38.139Z,50.75
2018-07-19T05:13:37.914Z,49.58
2018-07-19T05:14:37.928Z,49.49
2018-07-19T05:15:38.296Z,49.32
2018-07-19T05:16:37.929Z,49.22
2018-07-19T05:17:37.937Z,49.02
2018-07-19T05:18:37.964Z,48.34
2018-07-19T05:19:38.582Z,48.24
2018-07-19T05:20:37.976Z,48.34
2018-07-19T05:21:37.986Z,47.75
2018-07-19T05:22:37.989Z,47.87
2018-07-19T05:23:38.450Z,47.58
2018-07-19T05:24:37.991Z,47.58
2018-07-19T05:25:38.008Z,47.28
2018-07-19T05:26:38.373Z,47.31
2018-07-19T05:27:38.025Z,46.62
2018-07-19T05:28:38.022Z,46.06
2018-07-19T05:29:38.045Z,45.76
2018-07-19T05:30:37.779Z,45.01
2018-07-19T05:31:38.047Z,45.3
2018-07-19T05:32:38.069Z,45.4
2018-07-19T05:33:38.433Z,44.62
2018-07-19T05:34:38.107Z,44.62
2018-07-19T05:35:38.085Z,44.81
2018-07-19T05:36:38.096Z,44.71
2018-07-19T05:37:38.096Z,45.08
2018-07-19T05:38:38.117Z,45.47
2018-07-19T05:39:37.855Z,45.57
2018-07-19T05:40:37.905Z,45.75
2018-07-19T05:41:38.132Z,46.04
2018-07-19T05:42:38.152Z,45.94
2018-07-19T05:43:38.160Z,46.33
2018-07-19T05:44:38.751Z,46.23
2018-07-19T05:45:38.164Z,45.94
2018-07-19T05:46:38.172Z,45.57
2018-07-19T05:47:38.602Z,45.86
2018-07-19T05:48:38.746Z,46.16
2018-07-19T05:49:38.254Z,47.02
2018-07-19T05:50:38.213Z,47.28
2018-07-19T05:51:38.867Z,47.41
2018-07-19T05:52:38.229Z,47.21
2018-07-19T05:53:38.254Z,47.21
2018-07-19T05:54:38.258Z,47.31
2018-07-19T05:55:37.996Z,47.21
2018-07-19T05:56:38.268Z,47.31
2018-07-19T05:57:38.273Z,46.82
2018-07-19T05:58:38.891Z,46.36
2018-07-19T05:59:38.293Z,45.98
2018-07-19T06:00:38.037Z,45.98
2018-07-19T06:01:38.047Z,45.52
2018-07-19T06:02:38.312Z,45.23
2018-07-19T06:03:38.066Z,44.83
2018-07-19T06:04:38.076Z,44.76
2018-07-19T06:05:38.348Z,44.93
2018-07-19T06:06:38.366Z,44.73
2018-07-19T06:07:38.838Z,45.79
2018-07-19T06:08:38.383Z,46.55
2018-07-19T06:09:38.512Z,47.31
2018-07-19T06:10:38.394Z,47.28
2018-07-19T06:11:38.141Z,48.14
2018-07-19T06:12:38.410Z,49.12
2018-07-19T06:13:38.432Z,50.43
2018-07-19T06:14:38.430Z,51.78
2018-07-19T06:15:39.024Z,52.73
2018-07-19T06:16:38.440Z,53.85
2018-07-19T06:17:38.451Z,54.43
2018-07-19T06:18:38.626Z,55.08
2018-07-19T06:19:38.935Z,56.22
2018-07-19T06:20:38.506Z,56.39
2018-07-19T06:21:38.498Z,56.77
2018-07-19T06:22:39.045Z,57.26
2018-07-19T06:23:38.513Z,57.33
2018-07-19T06:24:38.506Z,57.36
2018-07-19T06:25:39.036Z,57.36
2018-07-19T06:26:38.541Z,56.51
2018-07-19T06:27:38.540Z,56.12
2018-07-19T06:28:39.125Z,56.25
2018-07-19T06:29:38.545Z,55.27
2018-07-19T06:30:38.280Z,54.72
2018-07-19T06:31:38.731Z,53.87
2018-07-19T06:32:38.565Z,53.02
2018-07-19T06:33:38.301Z,53.05
2018-07-19T06:34:38.573Z,52.85
2018-07-19T06:35:38.590Z,52.48
2018-07-19T06:36:39.135Z,52.09
2018-07-19T06:37:38.608Z,51.51
2018-07-19T06:38:38.600Z,52.09
2018-07-19T06:39:39.118Z,52.85
2018-07-19T06:40:38.613Z,52.95
2018-07-19T06:41:38.622Z,53.02
2018-07-19T06:42:39.099Z,53.31
2018-07-19T06:43:38.638Z,53.31
2018-07-19T06:44:38.641Z,53.8
2018-07-19T06:45:38.644Z,54.77
2018-07-19T06:46:38.648Z,55.79
2018-07-19T06:47:38.663Z,56.35
2018-07-19T06:48:38.405Z,57.12
2018-07-19T06:49:39.116Z,57.39
2018-07-19T06:50:38.676Z,58.46
2018-07-19T06:51:38.706Z,58.95
2018-07-19T06:52:39.249Z,58.82
2018-07-19T06:53:38.694Z,59.01
2018-07-19T06:54:38.708Z,59.99
2018-07-19T06:55:38.954Z,60.18
2018-07-19T06:56:38.721Z,60.57
2018-07-19T06:57:38.803Z,60.15
2018-07-19T06:58:39.202Z,60.15
2018-07-19T06:59:38.752Z,60.38
2018-07-19T07:00:38.754Z,60.18
2018-07-19T07:01:39.236Z,59.79
2018-07-19T07:02:38.751Z,59.89
2018-07-19T07:03:38.915Z,60.31
2018-07-19T07:04:38.780Z,60.02
2018-07-19T07:05:38.526Z,59.72
2018-07-19T07:06:38.808Z,60.02
2018-07-19T07:07:38.788Z,59.82
2018-07-19T07:08:38.537Z,60.77
2018-07-19T07:09:38.553Z,60.44
2018-07-19T07:10:38.809Z,60.74
2018-07-19T07:11:39.402Z,61.12
2018-07-19T07:12:38.825Z,61.05
2018-07-19T07:13:38.569Z,60.57
2018-07-19T07:14:39.492Z,60.28
2018-07-19T07:15:38.854Z,60.67
2018-07-19T07:16:38.856Z,60.77
2018-07-19T07:17:39.530Z,60.74
2018-07-19T07:18:38.868Z,62.38
2018-07-19T07:19:38.601Z,61.8
2018-07-19T07:20:39.345Z,62.35
2018-07-19T07:21:38.611Z,63.04
2018-07-19T07:22:38.887Z,64.17
2018-07-19T07:23:38.878Z,65.33
2018-07-19T07:24:38.886Z,65.79
2018-07-19T07:25:38.631Z,66.56
2018-07-19T07:26:38.902Z,66.44
2018-07-19T07:27:39.104Z,67.11
2018-07-19T07:28:38.916Z,66.92
2018-07-19T07:29:38.918Z,67.02
2018-07-19T07:30:39.249Z,66.92
2018-07-19T07:31:38.916Z,67.21
2018-07-19T07:32:38.921Z,67.21
2018-07-19T07:33:39.474Z,67.21
2018-07-19T07:34:38.970Z,67.89
2018-07-19T07:35:38.937Z,68.82
2018-07-19T07:36:38.673Z,68.82
2018-07-19T07:37:38.938Z,70.09
2018-07-19T07:38:38.950Z,69.76
2018-07-19T07:39:39.349Z,70.44
2018-07-19T07:40:38.959Z,70.73
2018-07-19T07:41:38.965Z,70.98
2018-07-19T07:42:39.371Z,71.76
2018-07-19T07:43:38.961Z,71.47
2018-07-19T07:44:38.993Z,72.34
2018-07-19T07:45:38.969Z,72.21
2018-07-19T07:46:38.975Z,72.6
2018-07-19T07:47:38.967Z,72.79
2018-07-19T07:48:39.481Z,73.57
2018-07-19T07:49:38.963Z,73.85
2018-07-19T07:50:38.963Z,74.3
2018-07-19T07:51:38.990Z,74.3
2018-07-19T07:52:38.710Z,74.82
2018-07-19T07:53:38.975Z,74.49
2018-07-19T07:54:38.982Z,74.3
2018-07-19T07:55:39.530Z,74.4
2018-07-19T07:56:38.976Z,74.34
2018-07-19T07:57:39.001Z,73.75
2018-07-19T07:58:39.536Z,73.95
2018-07-19T07:59:38.721Z,73.47
2018-07-19T08:00:38.989Z,73.57
2018-07-19T08:01:38.986Z,73.57
2018-07-19T08:02:39.370Z,73.27
2018-07-19T08:03:38.731Z,72.53
2018-07-19T08:04:38.999Z,72.63
2018-07-19T08:05:39.488Z,72.44
2018-07-19T08:06:38.997Z,73.41
2018-07-19T08:07:39.000Z,73.47
2018-07-19T08:08:39.666Z,73.08
2018-07-19T08:09:39.012Z,74.05
2018-07-19T08:10:39.002Z,73.66
2018-07-19T08:11:39.491Z,73.66
2018-07-19T08:12:39.021Z,73.57
2018-07-19T08:13:39.043Z,73.66
2018-07-19T08:14:39.040Z,73.85
2018-07-19T08:15:38.780Z,74.15
2018-07-19T08:16:39.018Z,74.15
2018-07-19T08:17:39.605Z,73.95
2018-07-19T08:18:39.019Z,74.24
2018-07-19T08:19:39.023Z,73.85
2018-07-19T08:20:39.719Z,74.05
2018-07-19T08:21:39.162Z,74.63
2018-07-19T08:22:39.034Z,74.92
2018-07-19T08:23:39.552Z,75.79
2018-07-19T08:24:38.767Z,75.4
2018-07-19T08:25:38.770Z,75.11
2018-07-19T08:26:39.728Z,75.5
2018-07-19T08:27:39.385Z,75.79
2018-07-19T08:28:39.058Z,76.43
2018-07-19T08:29:39.041Z,76.82
2018-07-19T08:30:38.778Z,77.36
2018-07-19T08:31:39.048Z,77.26
2018-07-19T08:32:39.039Z,77.84
2018-07-19T08:33:39.719Z,78.23
2018-07-19T08:34:39.053Z,78.03
2018-07-19T08:35:39.045Z,78.52
2018-07-19T08:36:39.808Z,78.52
2018-07-19T08:37:39.048Z,79.45
2018-07-19T08:38:39.048Z,79.54
2018-07-19T08:39:39.636Z,79.83
2018-07-19T08:40:39.061Z,80.32
2018-07-19T08:41:39.054Z,80.8
2018-07-19T08:42:39.581Z,80.41
2018-07-19T08:43:39.054Z,80.51
2018-07-19T08:44:39.062Z,80.86
2018-07-19T08:45:39.544Z,81.34
2018-07-19T08:46:39.067Z,81.73
2018-07-19T08:47:39.052Z,82.02
2018-07-19T08:48:39.616Z,82.5
2018-07-19T08:49:39.068Z,82.31
2018-07-19T08:50:38.791Z,82.07
2018-07-19T08:51:39.206Z,82.56
2018-07-19T08:52:38.807Z,83.42
2018-07-19T08:53:39.056Z,85.06
2018-07-19T08:54:39.086Z,86.32
2018-07-19T08:55:39.701Z,88.59
2018-07-19T08:56:39.178Z,89.65
2018-07-19T08:57:39.056Z,89.85
2018-07-19T08:58:39.285Z,91.68
2018-07-19T08:59:39.049Z,91.64
2018-07-19T09:00:39.055Z,92.75
2018-07-19T09:01:39.598Z,93.33
2018-07-19T09:02:38.790Z,94.06
2018-07-19T09:03:39.066Z,93.48
2018-07-19T09:04:39.542Z,94.73
2018-07-19T09:05:39.075Z,94.68
2018-07-19T09:06:39.052Z,94.78
2018-07-19T09:07:39.076Z,95.45
2018-07-19T09:08:39.175Z,94.59
2018-07-19T09:09:39.047Z,94.49
2018-07-19T09:10:38.782Z,94.1
2018-07-19T09:11:39.504Z,93.81
2018-07-19T09:12:39.065Z,92.94
2018-07-19T09:13:39.047Z,92.94
2018-07-19T09:14:39.044Z,92.71
2018-07-19T09:15:39.060Z,92.71
2018-07-19T09:16:39.044Z,93.48
2018-07-19T09:17:39.048Z,93.09
2018-07-19T09:18:39.604Z,93.48
2018-07-19T09:19:39.320Z,94.54
2018-07-19T09:20:39.035Z,94.34
2018-07-19T09:21:39.512Z,93.86
2018-07-19T09:22:39.068Z,94.54
2018-07-19T09:23:38.770Z,93.57
2018-07-19T09:24:39.025Z,93.48
2018-07-19T09:25:39.592Z,93.86
2018-07-19T09:26:39.102Z,93.48
2018-07-19T09:27:39.020Z,93.48
2018-07-19T09:28:39.561Z,93.86
2018-07-19T09:29:39.032Z,93.09
2018-07-19T09:30:39.027Z,92.03
2018-07-19T09:31:38.759Z,91.74
2018-07-19T09:32:39.720Z,91.93
2018-07-19T09:33:39.028Z,91.78
2018-07-19T09:34:39.025Z,92.08
2018-07-19T09:35:39.539Z,91.88
2018-07-19T09:36:38.767Z,90.92
2018-07-19T09:37:39.034Z,90
2018-07-19T09:38:39.286Z,88.84
2018-07-19T09:39:39.409Z,88.17
2018-07-19T09:40:39.029Z,88.02
2018-07-19T09:41:39.026Z,87.63
2018-07-19T09:42:39.611Z,87.97
2018-07-19T09:43:39.145Z,87.92
2018-07-19T09:44:39.056Z,87.34
2018-07-19T09:45:39.003Z,88.11
2018-07-19T09:46:39.004Z,88.11
2018-07-19T09:47:39.064Z,88.02
2018-07-19T09:48:38.738Z,87.53
2018-07-19T09:49:39.567Z,86.61
2018-07-19T09:50:38.736Z,86.9
2018-07-19T09:51:39.007Z,86.8
2018-07-19T09:52:39.551Z,86.32
2018-07-19T09:53:39.002Z,85.84
2018-07-19T09:54:39.096Z,85.21
2018-07-19T09:55:38.740Z,84.82
2018-07-19T09:56:39.523Z,85.59
2018-07-19T09:57:38.991Z,84.63
2018-07-19T09:58:38.730Z,84.63
2018-07-19T09:59:39.638Z,84.72
2018-07-19T10:00:39.018Z,84.53
2018-07-19T10:01:39.001Z,84.91
2018-07-19T10:02:39.582Z,84.33
2018-07-19T10:03:38.999Z,83.51
2018-07-19T10:04:39.004Z,83.31
2018-07-19T10:05:39.063Z,83.7
2018-07-19T10:06:39.505Z,83.89
2018-07-19T10:07:39.028Z,83.26
2018-07-19T10:08:38.985Z,82.1
2018-07-19T10:09:39.003Z,82.39
2018-07-19T10:10:39.332Z,82.43
2018-07-19T10:11:38.985Z,81.65
2018-07-19T10:12:39.013Z,81.65
2018-07-19T10:13:39.831Z,80.63
2018-07-19T10:14:38.987Z,80.05
2018-07-19T10:15:38.989Z,79.7
2018-07-19T10:16:39.010Z,79.5
2018-07-19T10:17:39.632Z,78.74
2018-07-19T10:18:39.001Z,78.58
2018-07-19T10:19:39.024Z,77.03
2018-07-19T10:20:38.756Z,76.1
2018-07-19T10:21:38.999Z,76.48
2018-07-19T10:22:38.997Z,76.48
2018-07-19T10:23:39.119Z,76.19
2018-07-19T10:24:39.565Z,74.74
2018-07-19T10:25:38.742Z,75.03
2018-07-19T10:26:38.799Z,75.38
2018-07-19T10:27:39.007Z,75.51
2018-07-19T10:28:39.638Z,76.45
2018-07-19T10:29:39.105Z,75.96
2018-07-19T10:30:39.016Z,75.48
2018-07-19T10:31:39.031Z,74.51
2018-07-19T10:32:39.288Z,74.22
2018-07-19T10:33:39.035Z,74.9
2018-07-19T10:34:39.042Z,74.51
2018-07-19T10:35:39.482Z,73.67
2018-07-19T10:36:39.028Z,72.8
2018-07-19T10:37:39.131Z,72.12
2018-07-19T10:38:39.028Z,72.77
2018-07-19T10:39:39.488Z,72.38
2018-07-19T10:40:39.118Z,72.77
2018-07-19T10:41:39.047Z,73.64
2018-07-19T10:42:39.038Z,72.96
2018-07-19T10:43:38.788Z,73.54
2018-07-19T10:44:38.787Z,73.6
2018-07-19T10:45:39.049Z,73.64
2018-07-19T10:46:39.601Z,73.15
2018-07-19T10:47:39.043Z,73.31
2018-07-19T10:48:39.045Z,73.15
2018-07-19T10:49:39.050Z,73.6
2018-07-19T10:50:39.055Z,73.21
2018-07-19T10:51:39.078Z,73.31
2018-07-19T10:52:39.057Z,73.69
2018-07-19T10:53:39.061Z,74.38
2018-07-19T10:54:39.058Z,74.73
2018-07-19T10:55:39.060Z,74.24
2018-07-19T10:56:39.060Z,75.21
2018-07-19T10:57:39.066Z,74.82
2018-07-19T10:58:39.069Z,75.11
2018-07-19T10:59:38.814Z,75.11
2018-07-19T11:00:39.067Z,75.6
2018-07-19T11:01:39.075Z,75.79
2018-07-19T11:02:39.094Z,76.56
2018-07-19T11:03:39.082Z,76.28
2018-07-19T11:04:39.078Z,75.5
2018-07-19T11:05:39.079Z,75.6
2018-07-19T11:06:39.078Z,75.11
2018-07-19T11:07:39.131Z,75.31
2018-07-19T11:08:39.090Z,75.5
2018-07-19T11:09:38.875Z,76.04
2018-07-19T11:10:39.082Z,75.65
2018-07-19T11:11:39.091Z,76.14
2018-07-19T11:12:39.102Z,76.62
2018-07-19T11:13:38.857Z,77.3
2018-07-19T11:14:39.091Z,76.91
2018-07-19T11:15:39.129Z,76.53
2018-07-19T11:16:38.837Z,76.14
2018-07-19T11:17:39.109Z,76.04
2018-07-19T11:18:39.120Z,75.56
2018-07-19T11:19:38.844Z,75.56
2018-07-19T11:20:39.097Z,75.6
2018-07-19T11:21:38.842Z,75.11
2018-07-19T11:22:39.205Z,75.11
2018-07-19T11:23:39.098Z,75.4
2018-07-19T11:24:39.116Z,75.11
2018-07-19T11:25:39.100Z,74.63
2018-07-19T11:26:39.102Z,75.37
2018-07-19T11:27:39.106Z,75.56
2018-07-19T11:28:39.102Z,75.65
2018-07-19T11:29:39.107Z,76.04
2018-07-19T11:30:39.105Z,76.53
2018-07-19T11:31:39.108Z,76.62
2018-07-19T11:32:39.111Z,76.49
2018-07-19T11:33:39.127Z,76.49
2018-07-19T11:34:39.112Z,77.17
2018-07-19T11:35:38.874Z,77.07
2018-07-19T11:36:39.115Z,76.97
2018-07-19T11:37:39.113Z,76.43
2018-07-19T11:38:39.119Z,76.2
2018-07-19T11:39:39.120Z,76.43
2018-07-19T11:40:39.116Z,76.43
2018-07-19T11:41:39.234Z,75.37
2018-07-19T11:42:39.128Z,75.27
2018-07-19T11:43:39.119Z,75.65
2018-07-19T11:44:39.125Z,75.27
2018-07-19T11:45:39.125Z,74.79
2018-07-19T11:46:39.122Z,74.49
2018-07-19T11:47:39.121Z,74.34
2018-07-19T11:48:39.121Z,74.11
2018-07-19T11:49:39.124Z,73.95
2018-07-19T11:50:39.125Z,73.95
2018-07-19T11:51:39.128Z,73.66
2018-07-19T11:52:39.136Z,73.95
2018-07-19T11:53:39.130Z,73.75
2018-07-19T11:54:39.135Z,73.57
2018-07-19T11:55:39.238Z,73.63
2018-07-19T11:56:39.129Z,72.85
2018-07-19T11:57:38.882Z,72.17
2018-07-19T11:58:39.132Z,72.56
2018-07-19T11:59:39.141Z,72.56
2018-07-19T12:00:38.888Z,72.56
2018-07-19T12:01:39.198Z,72.95
2018-07-19T12:02:39.147Z,73.04
2018-07-19T12:03:38.884Z,73.39
2018-07-19T12:04:39.140Z,73.78
2018-07-19T12:05:38.885Z,73.97
2018-07-19T12:06:39.158Z,74.17
2018-07-19T12:07:39.140Z,73.68
2018-07-19T12:08:39.138Z,74.07
2018-07-19T12:09:39.138Z,74.36
2018-07-19T12:10:39.141Z,74.27
2018-07-19T12:11:38.889Z,75.04
2018-07-19T12:12:39.141Z,74.65
2018-07-19T12:13:39.141Z,74.36
2018-07-19T12:14:39.397Z,75.04
2018-07-19T12:15:38.891Z,75.04
2018-07-19T12:16:39.151Z,75.13
2018-07-19T12:17:39.148Z,75.23
2018-07-19T12:18:39.144Z,75.62
2018-07-19T12:19:38.892Z,75.62
2018-07-19T12:20:39.189Z,75.13
2018-07-19T12:21:39.162Z,73.49
2018-07-19T12:22:39.143Z,72.33
2018-07-19T12:23:39.143Z,72.72
2018-07-19T12:24:38.893Z,72.72
2018-07-19T12:25:38.893Z,72.27
2018-07-19T12:26:39.166Z,71.98
2018-07-19T12:27:38.894Z,72.75
2018-07-19T12:28:39.147Z,72.66
2018-07-19T12:29:39.146Z,72.75
2018-07-19T12:30:38.910Z,72.46
2018-07-19T12:31:39.161Z,72.11
2018-07-19T12:32:39.153Z,72.4
2018-07-19T12:33:39.156Z,72.02
2018-07-19T12:34:39.151Z,72.02
2018-07-19T12:35:39.151Z,72.6
2018-07-19T12:36:39.162Z,73.85
2018-07-19T12:37:39.167Z,75.5
2018-07-19T12:38:39.161Z,75.6
2018-07-19T12:39:39.156Z,76.56
2018-07-19T12:40:38.901Z,75.98
2018-07-19T12:41:39.155Z,77.63
2018-07-19T12:42:39.268Z,79.52
2018-07-19T12:43:39.174Z,80.49
2018-07-19T12:44:39.157Z,81.56
2018-07-19T12:45:39.157Z,80.4
2018-07-19T12:46:39.170Z,76.82
2018-07-19T12:47:39.159Z,77.24
2018-07-19T12:48:38.911Z,74.82
2018-07-19T12:49:39.165Z,74.73
2018-07-19T12:50:39.163Z,74.53
2018-07-19T12:51:39.169Z,74.08
2018-07-19T12:52:39.168Z,73.69
2018-07-19T12:53:39.170Z,72.05
2018-07-19T12:54:39.169Z,71.66